createdAt,value
2019-06-20T00:01:28.342Z,21.50
2019-06-20T00:03:57.720Z,21.50
2019-06-20T00:06:27.134Z,21.50
2019-06-20T00:08:56.796Z,21.40
2019-06-20T00:11:26.317Z,21.40
2019-06-20T00:13:55.725Z,21.40
2019-06-20T00:16:25.168Z,21.30
2019-06-20T00:18:54.633Z,21.30
2019-06-20T00:21:24.076Z,21.30
2019-06-20T00:23:53.468Z,21.20
2019-06-20T00:26:22.880Z,21.20
2019-06-20T00:28:52.295Z,21.20
2019-06-20T00:31:21.701Z,21.10
2019-06-20T00:33:51.104Z,21.10
2019-06-20T00:36:20.498Z,21.10
2019-06-20T00:38:49.904Z,21.10
2019-06-20T00:41:19.283Z,21.10
2019-06-20T00:43:48.696Z,21.10
2019-06-20T00:46:18.067Z,21.00
2019-06-20T00:48:47.459Z,21.10
2019-06-20T00:51:16.928Z,21.10
2019-06-20T00:53:46.327Z,21.10
2019-06-20T00:56:15.844Z,21.10
2019-06-20T00:58:45.244Z,21.10
2019-06-20T01:01:14.751Z,21.10
2019-06-20T01:03:44.195Z,21.10
2019-06-20T01:06:13.604Z,21.10
2019-06-20T01:08:43.008Z,21.10
2019-06-20T01:11:12.423Z,21.10
2019-06-20T01:13:41.868Z,21.10
2019-06-20T01:16:11.264Z,21.10
2019-06-20T01:18:40.702Z,21.10
2019-06-20T01:21:10.124Z,21.00
2019-06-20T01:23:39.535Z,21.00
2019-06-20T01:26:08.978Z,21.00
2019-06-20T01:28:38.382Z,20.90
2019-06-20T01:31:07.756Z,20.90
2019-06-20T01:33:37.169Z,20.80
2019-06-20T01:36:06.544Z,20.70
2019-06-20T01:38:36.012Z,20.60
2019-06-20T01:41:06.390Z,20.50
2019-06-20T01:43:49.629Z,20.50
2019-06-20T01:46:06.917Z,20.40
2019-06-20T01:48:36.330Z,20.40
2019-06-20T01:51:05.748Z,20.30
2019-06-20T01:53:35.161Z,20.30
2019-06-20T01:56:04.677Z,20.20
2019-06-20T01:58:34.028Z,20.20
2019-06-20T02:01:03.483Z,20.10
2019-06-20T02:03:32.888Z,20.10
2019-06-20T02:06:02.312Z,20.10
2019-06-20T02:08:31.729Z,20.10
2019-06-20T02:11:01.097Z,20.10
2019-06-20T02:13:30.528Z,20.20
2019-06-20T02:15:59.967Z,20.20
2019-06-20T02:18:29.436Z,20.20
2019-06-20T02:20:59.446Z,20.20
2019-06-20T02:23:28.969Z,20.10
2019-06-20T02:25:58.368Z,20.00
2019-06-20T02:28:27.744Z,19.80
2019-06-20T02:30:57.166Z,19.70
2019-06-20T02:33:26.555Z,19.60
2019-06-20T02:35:55.993Z,19.50
2019-06-20T02:38:25.388Z,19.50
2019-06-20T02:40:54.783Z,19.50
2019-06-20T02:43:24.288Z,19.50
2019-06-20T02:45:53.699Z,19.40
2019-06-20T02:48:23.100Z,19.30
2019-06-20T02:50:52.538Z,19.30
2019-06-20T02:53:21.946Z,19.30
2019-06-20T02:55:51.335Z,19.20
2019-06-20T02:58:20.735Z,19.20
2019-06-20T03:00:55.635Z,19.10
2019-06-20T03:03:25.384Z,19.10
2019-06-20T03:05:54.807Z,19.00
2019-06-20T03:08:24.431Z,19.00
2019-06-20T03:10:53.844Z,19.00
2019-06-20T03:13:23.253Z,18.90
2019-06-20T03:15:52.676Z,18.90
2019-06-20T03:18:22.129Z,18.80
2019-06-20T03:20:51.577Z,18.80
2019-06-20T03:23:21.023Z,18.80
2019-06-20T03:25:50.416Z,18.80
2019-06-20T03:28:19.865Z,18.80
2019-06-20T03:30:49.256Z,18.70
2019-06-20T03:33:18.668Z,18.70
2019-06-20T03:35:48.076Z,18.70
2019-06-20T03:38:17.511Z,18.70
2019-06-20T03:40:46.923Z,18.70
2019-06-20T03:43:16.456Z,18.70
2019-06-20T03:45:45.972Z,18.70
2019-06-20T03:48:15.412Z,18.70
2019-06-20T03:50:44.815Z,18.70
2019-06-20T03:53:14.221Z,18.70
2019-06-20T03:55:43.716Z,18.80
2019-06-20T03:58:13.133Z,18.80
2019-06-20T04:00:42.600Z,18.90
2019-06-20T04:03:12.278Z,18.90
2019-06-20T04:05:41.658Z,19.00
2019-06-20T04:08:11.089Z,19.00
2019-06-20T04:10:40.500Z,19.10
2019-06-20T04:13:09.897Z,19.10
2019-06-20T04:15:39.287Z,19.10
2019-06-20T04:18:08.861Z,19.10
2019-06-20T04:20:38.316Z,19.10
2019-06-20T04:23:07.732Z,19.20
2019-06-20T04:25:37.177Z,19.20
2019-06-20T04:28:06.625Z,19.30
2019-06-20T04:30:36.012Z,19.40
2019-06-20T04:33:05.432Z,19.40
2019-06-20T04:35:34.859Z,19.50
2019-06-20T04:38:04.311Z,19.60
2019-06-20T04:40:33.714Z,19.70
2019-06-20T04:43:03.128Z,19.70
2019-06-20T04:45:51.548Z,19.70
2019-06-20T04:48:20.943Z,19.80
2019-06-20T04:50:50.427Z,19.90
2019-06-20T04:53:19.796Z,19.90
2019-06-20T04:55:49.204Z,19.90
2019-06-20T04:58:18.600Z,19.90
2019-06-20T05:00:48.008Z,19.90
2019-06-20T05:03:17.403Z,20.00
2019-06-20T05:05:46.827Z,20.00
2019-06-20T05:08:16.239Z,20.00
2019-06-20T05:10:45.736Z,20.00
2019-06-20T05:13:15.136Z,20.10
2019-06-20T05:15:52.505Z,20.20
2019-06-20T05:18:15.575Z,20.30
2019-06-20T05:20:45.068Z,20.40
2019-06-20T05:23:14.483Z,20.40
2019-06-20T05:25:43.891Z,20.40
2019-06-20T05:28:13.327Z,20.50
2019-06-20T05:30:42.728Z,20.50
2019-06-20T05:33:12.130Z,20.50
2019-06-20T05:35:42.008Z,20.50
2019-06-20T05:38:11.501Z,20.50
2019-06-20T05:40:40.915Z,20.50
2019-06-20T05:43:10.309Z,20.60
2019-06-20T05:45:39.736Z,20.70
2019-06-20T05:48:09.398Z,20.80
2019-06-20T05:50:39.418Z,20.90
2019-06-20T05:53:08.807Z,21.00
2019-06-20T05:55:38.210Z,21.00
2019-06-20T05:58:07.643Z,21.00
2019-06-20T06:00:37.046Z,20.90
2019-06-20T06:03:07.242Z,20.90
2019-06-20T06:05:37.165Z,20.80
2019-06-20T06:08:06.706Z,20.70
2019-06-20T06:10:36.084Z,20.60
2019-06-20T06:13:05.708Z,20.50
2019-06-20T06:15:35.153Z,20.50
2019-06-20T06:18:04.588Z,20.40
2019-06-20T06:20:34.084Z,20.40
2019-06-20T06:23:03.471Z,20.40
2019-06-20T06:25:32.851Z,20.50
2019-06-20T06:28:02.281Z,20.50
2019-06-20T06:30:31.775Z,20.50
2019-06-20T06:33:01.255Z,20.50
2019-06-20T06:35:30.638Z,20.50
2019-06-20T06:38:00.059Z,20.50
2019-06-20T06:40:29.438Z,20.40
2019-06-20T06:42:58.863Z,20.40
2019-06-20T06:45:28.267Z,20.30
2019-06-20T06:47:57.729Z,20.20
2019-06-20T06:50:27.312Z,20.10
2019-06-20T06:52:56.729Z,19.90
2019-06-20T06:55:27.698Z,19.80
2019-06-20T06:57:57.288Z,19.80
2019-06-20T07:00:26.997Z,19.80
2019-06-20T07:02:56.431Z,19.90
2019-06-20T07:05:25.924Z,19.90
2019-06-20T07:07:55.338Z,19.90
2019-06-20T07:10:25.205Z,19.90
2019-06-20T07:12:54.594Z,19.90
2019-06-20T07:15:24.368Z,19.90
2019-06-20T07:17:53.818Z,19.90
2019-06-20T07:20:23.279Z,19.90
2019-06-20T07:22:52.756Z,19.90
2019-06-20T07:25:22.419Z,19.90
2019-06-20T07:27:51.873Z,19.80
2019-06-20T07:30:21.251Z,19.80
2019-06-20T07:32:50.689Z,19.70
2019-06-20T07:35:20.132Z,19.70
2019-06-20T07:37:49.528Z,19.70
2019-06-20T07:40:19.311Z,19.70
2019-06-20T07:42:48.623Z,19.70
2019-06-20T07:45:19.516Z,19.90
2019-06-20T07:47:48.916Z,20.00
2019-06-20T07:50:18.440Z,20.00
2019-06-20T07:53:01.592Z,20.20
2019-06-20T07:55:19.341Z,20.20
2019-06-20T07:57:48.764Z,20.40
2019-06-20T08:00:19.016Z,20.60
2019-06-20T08:02:48.439Z,21.00
2019-06-20T08:05:17.933Z,21.20
2019-06-20T08:07:47.367Z,21.50
2019-06-20T08:10:18.780Z,21.70
2019-06-20T08:12:48.249Z,21.80
2019-06-20T08:15:18.178Z,21.90
2019-06-20T08:17:47.573Z,21.90
2019-06-20T08:20:18.688Z,21.90
2019-06-20T08:22:48.270Z,22.00
2019-06-20T08:25:18.143Z,22.10
2019-06-20T08:27:53.490Z,22.20
2019-06-20T08:30:24.784Z,22.20
2019-06-20T08:32:54.502Z,22.30
2019-06-20T08:35:26.388Z,22.40
2019-06-20T08:37:57.501Z,22.60
2019-06-20T08:40:28.048Z,22.80
2019-06-20T08:42:59.749Z,23.10
2019-06-20T08:45:31.061Z,23.20
2019-06-20T08:48:00.457Z,23.30
2019-06-20T08:50:30.027Z,23.30
2019-06-20T08:52:59.796Z,23.30
2019-06-20T08:55:29.389Z,23.30
2019-06-20T08:57:59.722Z,23.40
2019-06-20T09:00:30.198Z,23.40
2019-06-20T09:03:00.457Z,23.60
2019-06-20T09:05:30.926Z,23.60
2019-06-20T09:10:40.567Z,23.80
2019-06-20T09:13:11.504Z,24.20
2019-06-20T09:15:41.274Z,24.50
2019-06-20T09:18:10.775Z,24.60
2019-06-20T09:20:40.441Z,24.90
2019-06-20T09:23:09.895Z,25.00
2019-06-20T09:25:39.521Z,25.20
2019-06-20T09:28:09.328Z,25.40
2019-06-20T09:30:39.487Z,25.50
2019-06-20T09:33:08.877Z,25.50
2019-06-20T09:35:38.412Z,25.50
2019-06-20T09:38:08.004Z,25.30
2019-06-20T09:40:37.432Z,25.20
2019-06-20T09:43:07.316Z,25.20
2019-06-20T09:45:36.811Z,25.10
2019-06-20T09:48:06.221Z,25.00
2019-06-20T09:50:35.695Z,25.00
2019-06-20T09:53:05.122Z,25.10
2019-06-20T09:55:34.523Z,25.20
2019-06-20T09:58:04.015Z,25.20
2019-06-20T10:00:34.659Z,25.20
2019-06-20T10:03:04.657Z,25.10
2019-06-20T10:05:34.119Z,25.10
2019-06-20T10:08:03.512Z,25.20
2019-06-20T10:10:33.760Z,25.30
2019-06-20T10:13:03.154Z,25.50
2019-06-20T10:15:34.692Z,25.70
2019-06-20T10:18:04.243Z,25.70
2019-06-20T10:20:33.646Z,25.80
2019-06-20T10:23:03.958Z,25.90
2019-06-20T10:25:33.394Z,26.10
2019-06-20T10:28:02.800Z,26.10
2019-06-20T10:30:32.190Z,26.00
2019-06-20T10:33:01.612Z,26.00
2019-06-20T10:35:31.007Z,26.00
2019-06-20T10:38:00.527Z,26.00
2019-06-20T10:40:30.014Z,25.90
2019-06-20T10:42:59.415Z,25.90
2019-06-20T10:45:29.574Z,25.80
2019-06-20T10:47:59.120Z,25.70
2019-06-20T10:50:28.564Z,25.70
2019-06-20T10:52:57.957Z,25.70
2019-06-20T10:55:27.480Z,25.60
2019-06-20T10:57:56.884Z,25.60
2019-06-20T11:00:31.169Z,25.70
2019-06-20T11:02:58.067Z,25.90
2019-06-20T11:05:27.567Z,26.00
2019-06-20T11:07:56.995Z,25.80
2019-06-20T11:10:28.075Z,25.60
2019-06-20T11:12:57.464Z,25.50
2019-06-20T11:15:27.074Z,25.60
2019-06-20T11:17:57.100Z,25.70
2019-06-20T11:20:26.941Z,25.70
2019-06-20T11:22:56.335Z,25.90
2019-06-20T11:25:27.627Z,26.00
2019-06-20T11:27:57.062Z,25.90
2019-06-20T11:30:27.411Z,25.90
2019-06-20T11:32:56.819Z,26.00
2019-06-20T11:35:26.224Z,26.10
2019-06-20T11:37:55.632Z,26.10
2019-06-20T11:40:25.056Z,26.20
2019-06-20T11:42:54.462Z,26.30
2019-06-20T11:45:23.861Z,26.40
2019-06-20T11:47:53.339Z,26.50
2019-06-20T11:50:22.946Z,26.50
2019-06-20T11:52:52.428Z,26.50
2019-06-20T11:55:21.935Z,26.50
2019-06-20T11:57:51.326Z,26.30
2019-06-20T12:00:21.454Z,26.30
2019-06-20T12:02:50.831Z,26.30
2019-06-20T12:05:20.387Z,26.40
2019-06-20T12:07:50.165Z,26.50
2019-06-20T12:10:19.855Z,26.70
2019-06-20T12:12:49.362Z,26.70
2019-06-20T12:15:19.283Z,26.60
2019-06-20T12:17:49.301Z,26.80
2019-06-20T12:20:19.196Z,27.00
2019-06-20T12:22:50.483Z,27.10
2019-06-20T12:25:20.512Z,27.10
2019-06-20T12:27:50.232Z,27.20
2019-06-20T12:30:21.200Z,27.30
2019-06-20T12:32:50.698Z,27.30
2019-06-20T12:35:20.149Z,27.40
2019-06-20T12:37:49.983Z,27.50
2019-06-20T12:40:20.251Z,27.60
2019-06-20T12:42:49.791Z,27.70
2019-06-20T12:45:19.351Z,27.70
2019-06-20T12:47:49.992Z,27.80
2019-06-20T12:50:19.895Z,27.70
2019-06-20T12:52:49.702Z,27.60
2019-06-20T12:55:19.229Z,27.50
2019-06-20T12:57:48.721Z,27.30
2019-06-20T13:00:18.837Z,27.10
2019-06-20T13:02:49.599Z,27.00
2019-06-20T13:05:19.515Z,26.90
2019-06-20T13:07:50.143Z,26.80
2019-06-20T13:10:20.048Z,26.70
2019-06-20T13:12:49.626Z,26.60
2019-06-20T13:15:19.123Z,26.40
2019-06-20T13:17:49.095Z,26.30
2019-06-20T13:20:18.952Z,26.10
2019-06-20T13:22:49.528Z,26.00
2019-06-20T13:25:19.241Z,25.80
2019-06-20T13:27:50.249Z,25.60
2019-06-20T13:30:20.203Z,25.50
2019-06-20T13:32:49.599Z,25.40
2019-06-20T13:35:20.688Z,25.40
2019-06-20T13:37:50.172Z,25.20
2019-06-20T13:40:19.936Z,25.10
2019-06-20T13:42:50.357Z,24.90
2019-06-20T13:45:22.541Z,24.70
2019-06-20T13:47:52.200Z,24.40
2019-06-20T13:50:22.077Z,24.10
2019-06-20T13:52:51.651Z,23.80
2019-06-20T13:55:21.351Z,23.60
2019-06-20T13:57:51.025Z,23.40
2019-06-20T14:00:21.399Z,23.20
2019-06-20T14:02:51.647Z,23.00
2019-06-20T14:05:21.831Z,22.90
2019-06-20T14:07:53.893Z,22.70
2019-06-20T14:10:23.090Z,22.50
2019-06-20T14:12:52.521Z,22.30
2019-06-20T14:15:22.241Z,22.20
2019-06-20T14:17:51.801Z,21.90
2019-06-20T14:20:22.784Z,21.60
2019-06-20T14:22:52.288Z,21.40
2019-06-20T14:25:21.941Z,21.20
2019-06-20T14:27:51.712Z,21.00
2019-06-20T14:30:22.256Z,20.80
2019-06-20T14:32:51.781Z,20.70
2019-06-20T14:35:21.338Z,20.60
2019-06-20T14:37:51.796Z,20.40
2019-06-20T14:40:22.453Z,20.30
2019-06-20T14:42:52.381Z,20.10
2019-06-20T14:45:22.303Z,20.10
2019-06-20T14:47:52.694Z,20.00
2019-06-20T14:50:23.527Z,19.90
2019-06-20T14:52:54.178Z,19.90
2019-06-20T14:55:24.147Z,19.90
2019-06-20T14:57:54.735Z,19.90
2019-06-20T15:00:25.283Z,20.00
2019-06-20T15:02:58.311Z,20.20
2019-06-20T15:05:25.716Z,20.30
2019-06-20T15:07:55.937Z,20.50
2019-06-20T15:10:25.584Z,20.60
2019-06-20T15:12:55.876Z,20.80
2019-06-20T15:15:25.580Z,21.00
2019-06-20T15:17:56.360Z,21.30
2019-06-20T15:20:26.048Z,21.60
2019-06-20T15:22:56.711Z,21.90
2019-06-20T15:25:26.329Z,22.10
2019-06-20T15:27:58.073Z,22.40
2019-06-20T15:30:27.485Z,22.70
2019-06-20T15:33:07.568Z,22.90
2019-06-20T15:35:28.004Z,23.30
2019-06-20T15:37:57.798Z,23.70
2019-06-20T15:40:27.323Z,24.00
2019-06-20T15:42:57.341Z,24.10
2019-06-20T15:45:27.792Z,24.30
2019-06-20T15:47:57.239Z,24.70
2019-06-20T15:50:26.671Z,25.50
2019-06-20T15:52:56.057Z,26.40
2019-06-20T15:55:25.533Z,27.30
2019-06-20T15:57:54.920Z,28.10
2019-06-20T16:00:24.344Z,28.60
2019-06-20T16:03:05.890Z,29.00
2019-06-20T16:05:25.072Z,29.70
2019-06-20T16:07:54.492Z,30.40
2019-06-20T16:10:24.248Z,30.80
2019-06-20T16:12:53.635Z,31.20
2019-06-20T16:15:23.274Z,31.20
2019-06-20T16:17:52.739Z,31.30
2019-06-20T16:20:22.386Z,31.30
2019-06-20T16:22:51.790Z,31.60
2019-06-20T16:25:21.260Z,32.00
2019-06-20T16:27:50.747Z,32.30
2019-06-20T16:30:20.554Z,32.80
2019-06-20T16:32:49.980Z,32.60
2019-06-20T16:35:20.102Z,32.80
2019-06-20T16:37:49.529Z,32.90
2019-06-20T16:40:26.428Z,32.10
2019-06-20T16:42:55.842Z,31.20
2019-06-20T16:45:25.378Z,30.50
2019-06-20T16:47:54.835Z,30.20
2019-06-20T16:50:24.267Z,30.10
2019-06-20T16:52:53.852Z,30.50
2019-06-20T16:55:23.607Z,30.60
2019-06-20T16:57:53.025Z,29.90
2019-06-20T17:00:22.629Z,29.10
2019-06-20T17:02:52.075Z,28.30
2019-06-20T17:05:21.669Z,27.70
2019-06-20T17:07:51.067Z,27.60
2019-06-20T17:10:21.397Z,27.70
2019-06-20T17:12:50.817Z,27.40
2019-06-20T17:15:20.581Z,27.00
2019-06-20T17:17:50.065Z,26.70
2019-06-20T17:20:20.241Z,26.40
2019-06-20T17:22:49.675Z,26.80
2019-06-20T17:25:19.236Z,27.80
2019-06-20T17:27:48.696Z,29.10
2019-06-20T17:30:18.531Z,29.40
2019-06-20T17:32:47.941Z,29.10
2019-06-20T17:35:17.685Z,29.20
2019-06-20T17:37:47.099Z,29.30
2019-06-20T17:40:17.140Z,29.20
2019-06-20T17:42:46.880Z,28.70
2019-06-20T17:45:16.590Z,28.30
2019-06-20T17:47:46.030Z,27.70
2019-06-20T17:50:15.811Z,27.10
2019-06-20T17:52:45.314Z,26.70
2019-06-20T17:55:14.965Z,26.50
2019-06-20T17:57:44.375Z,26.20
2019-06-20T18:00:14.284Z,25.90
2019-06-20T18:02:43.733Z,25.50
2019-06-20T18:05:13.243Z,25.20
2019-06-20T18:07:42.628Z,24.90
2019-06-20T18:10:12.574Z,24.60
2019-06-20T18:12:42.094Z,24.30
2019-06-20T18:15:13.260Z,24.20
2019-06-20T18:17:42.665Z,24.00
2019-06-20T18:20:12.381Z,23.80
2019-06-20T18:22:42.083Z,23.60
2019-06-20T18:25:12.461Z,23.50
2019-06-20T18:27:41.904Z,23.40
2019-06-20T18:30:12.393Z,23.30
2019-06-20T18:32:41.851Z,23.20
2019-06-20T18:35:11.357Z,23.00
2019-06-20T18:37:40.815Z,22.90
2019-06-20T18:40:11.589Z,22.80
2019-06-20T18:42:40.984Z,22.70
2019-06-20T18:45:10.685Z,22.60
2019-06-20T18:47:40.165Z,22.50
2019-06-20T18:50:10.134Z,22.30
2019-06-20T18:52:51.687Z,22.20
2019-06-20T18:55:11.477Z,22.20
2019-06-20T18:57:40.881Z,22.10
2019-06-20T19:00:11.231Z,22.00
2019-06-20T19:02:40.640Z,21.90
2019-06-20T19:05:10.317Z,21.80
2019-06-20T19:07:39.738Z,21.70
2019-06-20T19:10:09.549Z,21.60
2019-06-20T19:12:38.931Z,21.50
2019-06-20T19:15:08.877Z,21.30
2019-06-20T19:17:38.326Z,21.30
2019-06-20T19:20:08.019Z,21.20
2019-06-20T19:22:37.468Z,21.10
2019-06-20T19:25:07.122Z,21.00
2019-06-20T19:27:45.994Z,20.90
2019-06-20T19:30:08.168Z,20.80
2019-06-20T19:32:37.591Z,20.80
2019-06-20T19:35:10.150Z,20.70
2019-06-20T19:37:38.531Z,20.70
2019-06-20T19:40:08.412Z,20.60
2019-06-20T19:42:37.880Z,20.60
2019-06-20T19:45:08.863Z,20.60
2019-06-20T19:47:38.312Z,20.50
2019-06-20T19:50:10.318Z,20.50
2019-06-20T19:52:39.958Z,20.40
2019-06-20T19:55:10.054Z,20.40
2019-06-20T19:57:39.500Z,20.30
2019-06-20T20:00:09.730Z,20.20
2019-06-20T20:02:39.232Z,20.10
2019-06-20T20:05:18.385Z,20.10
2019-06-20T20:07:40.038Z,20.00
2019-06-20T20:10:09.778Z,20.00
2019-06-20T20:12:39.201Z,19.90
2019-06-20T20:15:09.744Z,19.90
2019-06-20T20:17:39.132Z,19.90
2019-06-20T20:20:09.432Z,19.80
2019-06-20T20:22:38.875Z,19.80
2019-06-20T20:25:08.515Z,19.80
2019-06-20T20:27:37.953Z,19.70
2019-06-20T20:30:07.506Z,19.70
2019-06-20T20:32:36.920Z,19.70
2019-06-20T20:35:07.061Z,19.70
2019-06-20T20:37:36.482Z,19.70
2019-06-20T20:40:06.317Z,19.70
2019-06-20T20:42:35.706Z,19.70
2019-06-20T20:45:05.407Z,19.60
2019-06-20T20:47:34.841Z,19.60
2019-06-20T20:50:04.706Z,19.60
2019-06-20T20:52:34.098Z,19.60
2019-06-20T20:55:03.551Z,19.50
2019-06-20T20:57:33.025Z,19.60
2019-06-20T21:00:02.404Z,19.60
2019-06-20T21:02:31.855Z,19.60
2019-06-20T21:05:01.235Z,19.60
2019-06-20T21:07:30.656Z,19.60
2019-06-20T21:10:00.074Z,19.40
2019-06-20T21:12:29.507Z,19.20
2019-06-20T21:14:58.928Z,19.00
2019-06-20T21:17:28.385Z,18.80
2019-06-20T21:19:57.833Z,18.60
2019-06-20T21:22:27.254Z,18.40
2019-06-20T21:24:56.652Z,18.30
2019-06-20T21:27:26.055Z,18.20
2019-06-20T21:29:55.516Z,18.10
2019-06-20T21:32:24.951Z,17.90
2019-06-20T21:34:54.372Z,17.90
2019-06-20T21:37:23.756Z,17.80
2019-06-20T21:39:53.213Z,17.80
2019-06-20T21:42:22.648Z,17.80
2019-06-20T21:44:52.031Z,17.70
2019-06-20T21:47:21.432Z,17.70
2019-06-20T21:49:50.813Z,17.70
2019-06-20T21:52:20.240Z,17.70
2019-06-20T21:54:49.627Z,17.70
2019-06-20T21:57:19.131Z,17.70
2019-06-20T21:59:48.505Z,17.80
2019-06-20T22:02:17.934Z,17.80
2019-06-20T22:04:54.515Z,17.90
2019-06-20T22:07:18.410Z,17.90
2019-06-20T22:09:47.819Z,18.00
2019-06-20T22:12:17.249Z,17.90
2019-06-20T22:14:46.652Z,17.90
2019-06-20T22:17:16.051Z,17.80
2019-06-20T22:19:45.485Z,17.80
2019-06-20T22:22:14.870Z,17.70
2019-06-20T22:24:44.353Z,17.70
2019-06-20T22:27:13.763Z,17.60
2019-06-20T22:29:43.176Z,17.50
2019-06-20T22:32:12.603Z,17.50
2019-06-20T22:34:42.002Z,17.50
2019-06-20T22:37:11.418Z,17.40
2019-06-20T22:39:40.829Z,17.40
2019-06-20T22:42:10.256Z,17.30
2019-06-20T22:44:39.644Z,17.30
2019-06-20T22:47:09.033Z,17.20
2019-06-20T22:49:38.407Z,17.20
2019-06-20T22:52:07.837Z,17.10
2019-06-20T22:54:37.250Z,17.10
2019-06-20T22:57:06.630Z,17.10
2019-06-20T22:59:36.036Z,17.10
2019-06-20T23:02:05.449Z,17.10
2019-06-20T23:04:34.837Z,17.00
2019-06-20T23:07:04.262Z,17.00
2019-06-20T23:09:33.665Z,17.00
2019-06-20T23:12:03.044Z,17.00
2019-06-20T23:14:32.488Z,17.00
2019-06-20T23:17:01.887Z,17.00
2019-06-20T23:19:31.300Z,16.90
2019-06-20T23:22:00.693Z,16.90
2019-06-20T23:24:30.083Z,16.90
2019-06-20T23:26:59.461Z,16.90
2019-06-20T23:29:28.900Z,16.90
2019-06-20T23:31:58.360Z,16.90
2019-06-20T23:34:27.785Z,16.90
2019-06-20T23:37:11.820Z,16.90
2019-06-20T23:39:28.557Z,16.90
2019-06-20T23:41:57.915Z,16.90
2019-06-20T23:44:27.296Z,16.90
2019-06-20T23:46:56.720Z,17.00
2019-06-20T23:49:26.107Z,17.00
2019-06-20T23:52:06.188Z,17.10
2019-06-20T23:54:35.574Z,17.10
2019-06-20T23:57:04.981Z,17.20
2019-06-20T23:59:34.372Z,17.20
